Amargosa Valley, Nevada Weather observations

Data are for observation ending at time listed.
 Day   Time    Ave.   Ave.  Ave.  Vector   Max.   Stn.    Total    Solar   Ave.  
  of    of     Air    Rel.  Wind   Wind    Wind   Baro.  Precip.   Rad.    Soil  
Year   Day     Temp.  Hum.  Speed  Dir.    Gust   Pres.                    Temp. 
2014   (PST)    F      %     mph   deg.    mph     mb.     in.     W/m2     F   
------------------------------------------------------------------------------
 297   12:10   84.4    17   12.2   170     16.7   931.5    0.00     687    74.0
 297   12:20   84.8    16   11.5   173     16.4   931.3    0.00     681    74.2
 297   12:30   85.3    16    9.5   167     16.7   931.1    0.00     673    74.3
 297   12:40   85.6    15   10.3   179     17.6   930.9    0.00     663    74.5
 297   12:50   86.3    14   11.3   173     18.2   930.8    0.00     650    74.6
 297   13:00   86.8    14   11.9   176     17.9   930.7    0.00     638    74.8
 297   13:10   87.2    13   12.1   182     20.0   930.5    0.00     624    75.0
 297   13:20   87.2    13   11.7   177     17.3   930.4    0.00     607    75.2
 297   13:30   87.3    13   11.5   162     16.4   930.3    0.00     590    75.4
 297   13:40   87.4    12   12.9   175     18.4   930.2    0.00     570    75.7
 297   13:50   87.3    12   13.1   170     19.0   930.1    0.00     550    75.9
 297   14:00   87.4    12   12.3   168     17.0   930.0    0.00     527    76.1
 297   14:10   87.4    12   14.4   167     20.2   930.0    0.00     503    76.3
 297   14:20   87.5    12   13.4   169     20.7   930.0    0.00     478    76.5
 297   14:30   87.5    12   13.6   171     19.4   929.9    0.00     451    76.7
 297   14:40   87.6    13   12.9   168     17.3   929.9    0.00     423    77.0
 297   14:50   87.6    13   14.0   154     19.6   929.9    0.00     396    77.2
 297   15:00   87.2    13   13.4   158     20.2   929.8    0.00     365    77.4
 297   15:10   87.0    13   12.3   162     17.8   929.8    0.00     335    77.6
 297   15:20   86.8    13   11.0   158     17.7   929.6    0.00     305    77.8
 297   15:30   86.4    14   11.8   176     19.1   929.5    0.00     271    77.9
 297   15:40   86.0    14   11.2   157     17.5   929.4    0.00     119    78.1
 297   15:50   85.8    14   11.8   165     16.9   929.2    0.00      83    78.3
 297   16:00   85.8    15   11.1   163     17.1   929.2    0.00      36    78.4
 297   16:10   85.4    15   10.2   161     14.3   929.1    0.00      25    78.6
 297   16:20   85.2    15    9.5   168     15.1   928.9    0.00      22    78.7
 297   16:30   84.8    15   10.8   174     15.6   928.8    0.00      19    78.9
 297   16:40   84.3    15    9.4   178     14.5   928.8    0.00      16    79.0
 297   16:50   83.5    16    8.7   178     13.8   928.8    0.00       9    79.1
 297   17:00   82.3    17    6.6   175      9.6   928.8    0.00       5    79.2
 297   17:10   81.3    17    5.5   179      8.1   928.8    0.00       2    79.3
 297   17:20   80.8    18    4.8   183      7.1   928.7    0.00       0    79.4
 297   17:30   80.1    18    3.0   163      5.1   928.7    0.00       0    79.4
 297   17:40   79.4    18    1.6   100      3.4   928.8    0.00       0    79.5
 297   17:50   77.6    19    1.3    33      4.2   928.9    0.00       0    79.5
 297   18:00   77.0    19    1.3    43      4.4   928.9    0.00       0    79.6
 297   18:10   76.4    20    3.1    70      8.2   928.9    0.00       0    79.6
 297   18:20   77.5    19    3.7    75      7.7   929.0    0.00       0    79.6
 297   18:30   77.3    18    2.9    73      6.4   929.1    0.00       0    79.6
 297   18:40   76.1    19    2.3    66      6.1   929.1    0.00       0    79.6
 297   18:50   75.4    20    3.5    84      5.2   929.1    0.00       0    79.6
 297   19:00   74.8    20    3.0    76      5.0   929.1    0.00       0    79.5
 297   19:10   74.8    20    3.6    95      6.2   929.1    0.00       0    79.5
 297   19:20   74.2    20    2.8    90      5.9   929.1    0.00       0    79.5
 297   19:30   73.0    21    2.7    92      4.5   929.2    0.00       0    79.4
 297   19:40   72.7    22    5.7    98      8.4   929.3    0.00       0    79.4
 297   19:50   72.6    22    7.0   101      9.4   929.4    0.00       0    79.4
 297   20:00   72.1    22    6.7    95      8.9   929.5    0.00       0    79.3
 297   20:10   72.9    21    6.2    86      8.0   929.6    0.00       0    79.3
 297   20:20   73.0    21    5.9    96      8.6   929.6    0.00       0    79.2
 297   20:30   71.5    22    6.9   108      8.5   929.7    0.00       0    79.1
 297   20:40   71.1    22    7.3   112      9.8   929.8    0.00       0    79.1
 297   20:50   72.9    22    7.6   117     10.0   929.9    0.00       0    79.0
 297   21:00   73.5    21    7.5   117     10.4   929.9    0.00       0    78.9
 297   21:10   73.7    21    7.2   127     11.6   930.0    0.00       0    78.9
 297   21:20   71.7    22    5.2    99      6.6   930.1    0.00       0    78.8
 297   21:30   71.5    22    5.0    80      6.6   930.0    0.00       0    78.8
 297   21:40   71.2    23    3.2    66      5.7   930.0    0.00       0    78.7
 297   21:50   69.9    24    1.6    55      3.5   930.1    0.00       0    78.7
 297   22:00   69.2    25    1.4   147     12.5   930.0    0.00       0    78.6
 297   22:10   73.0    21    4.3   162      9.1   930.0    0.00       0    78.5
 297   22:20   72.7    22    2.9   154      7.7   930.0    0.00       0    78.4
 297   22:30   71.0    23    0.9   102      3.5   930.0    0.00       0    78.4
 297   22:40   69.7    24    1.3   133      2.9   930.0    0.00       0    78.3
 297   22:50   68.8    25    3.2   131      6.0   930.0    0.00       0    78.3
 297   23:00   68.6    25    4.1   128      5.5   930.0    0.00       0    78.2
 297   23:10   67.8    26    4.1   106      5.5   930.0    0.00       0    78.1
 297   23:20   67.6    26    4.9    98      5.9   930.0    0.00       0    78.0
 297   23:30   67.2    26    5.7    95      7.7   930.0    0.00       0    78.0
 297   23:40   66.7    27    5.7    82      8.0   930.1    0.00       0    77.9
 297   23:50   67.0    27    4.4    80      7.5   930.2    0.00       0    77.8
 298    0:00   65.9    28    5.6    86      8.2   930.1    0.00       0    77.8
 298    0:10   65.7    29    5.4    88      7.2   930.1    0.00       0    77.7
 298    0:20   65.7    29    5.3    95      7.1   930.1    0.00       0    77.6
 298    0:30   65.8    29    6.0    88      7.5   930.0    0.00       0    77.5
 298    0:40   65.5    29    6.0    98      8.6   930.0    0.00       0    77.5
 298    0:50   65.5    29    5.3   108      6.6   930.1    0.00       0    77.4
 298    1:00   65.4    29    5.8   109      7.3   929.9    0.00       0    77.3
 298    1:10   64.7    30    6.4   106      9.0   929.8    0.00       0    77.2
 298    1:20   65.0    30    5.5   119      7.2   929.7    0.00       0    77.2
 298    1:30   65.0    30    4.4   119      6.0   929.8    0.00       0    77.1
 298    1:40   65.0    30    4.7    96      6.1   929.7    0.00       0    77.0
 298    1:50   65.4    29    5.4    87      7.4   929.7    0.00       0    76.9
 298    2:00   65.2    30    5.0    86      9.4   929.7    0.00       0    76.9
 298    2:10   65.4    29    6.3    85      8.1   929.6    0.00       0    76.8
 298    2:20   64.0    31    6.3    88      7.5   929.5    0.00       0    76.7
 298    2:30   62.6    32    5.9    93      7.3   929.4    0.00       0    76.6
 298    2:40   62.4    32    5.4   100      6.5   929.3    0.00       0    76.6
 298    2:50   62.7    32    4.7   101      6.3   929.2    0.00       0    76.5
 298    3:00   62.9    32    5.6    80      8.0   929.2    0.00       0    76.4
 298    3:10   62.9    32    3.5    64      6.6   929.2    0.00       0    76.4
 298    3:20   61.9    33    5.1    88      7.7   929.1    0.00       0    76.3
 298    3:30   61.4    34    6.0   109      8.8   929.2    0.00       0    76.2
 298    3:40   62.1    33    7.3   120      9.6   929.1    0.00       0    76.1
 298    3:50   62.3    33    5.4   126      8.6   929.0    0.00       0    76.0
 298    4:00   61.6    34    4.1   123      6.3   929.0    0.00       0    76.0
 298    4:10   60.6    36    2.4   167      4.5   928.9    0.00       0    75.8
 298    4:20   59.4    37    4.7   138      6.1   928.8    0.00       0    75.8
 298    4:30   59.1    37    5.6   123      7.4   928.8    0.00       0    75.7
 298    4:40   59.3    37    5.9   118      7.9   928.9    0.00       0    75.7
 298    4:50   59.9    37    5.7   131      8.0   929.0    0.00       0    75.6
 298    5:00   59.9    37    6.8   146      9.6   929.0    0.00       0    75.5
 298    5:10   60.9    35    6.9   144     10.2   929.0    0.00       0    75.4
 298    5:20   61.0    35    5.1   124      7.7   929.1    0.00       0    75.3
 298    5:30   59.5    37    7.2   110      8.8   929.3    0.00       0    75.3
 298    5:40   59.2    37    6.8   123      8.5   929.4    0.00       0    75.2
 298    5:50   59.4    37    7.0   120      8.8   929.4    0.00       0    75.1
 298    6:00   60.0    37    7.1   113      8.6   929.5    0.00       1    75.0
 298    6:10   60.7    36    7.5   116      9.6   929.7    0.00       5    74.9
 298    6:20   61.9    35    7.8   123     10.2   929.8    0.00      17    74.9
 298    6:30   62.1    35    6.8   127      8.8   930.0    0.00      42    74.8
 298    6:40   62.2    36    6.7   136      7.9   930.1    0.00      70    74.7
 298    6:50   62.5    36    7.0   141      8.8   930.2    0.00     104    74.6
 298    7:00   63.6    36    9.1   152     12.9   930.2    0.00     137    74.5
 298    7:10   66.0    34   10.3   156     14.9   930.4    0.00     170    74.4
 298    7:20   66.7    33    9.6   147     13.6   930.7    0.00     201    74.3
 298    7:30   68.0    32   11.1   143     16.2   930.8    0.00     233    74.3
 298    7:40   69.2    31   12.5   148     17.5   931.0    0.00     265    74.2
 298    7:50   70.7    30   13.2   150     20.8   931.0    0.00     296    74.2
 298    8:00   72.0    29   13.3   150     19.1   931.1    0.00     328    74.1
 298    8:10   73.1    28   15.1   150     21.4   931.1    0.00     357    74.0
 298    8:20   74.0    28   18.6   157     24.6   931.2    0.00     388    74.0
 298    8:30   74.5    28   18.6   160     24.5   931.2    0.00     418    74.0
 298    8:40   75.0    28   19.9   165     26.5   931.3    0.00     308    73.9
 298    8:50   75.6    28   19.6   167     27.2   931.2    0.00      89    73.9
 298    9:00   75.9    28   20.7   166     28.3   931.1    0.00     487    73.9
 298    9:10   76.2    27   20.1   159     25.1   931.2    0.00     527    73.9
 298    9:20   76.6    27   20.4   164     28.4   931.1    0.00     538    73.9
 298    9:30   77.0    27   21.1   167     28.2   931.0    0.00     530    73.9
 298    9:40   77.3    27   20.6   166     29.2   931.0    0.00     544    73.9
 298    9:50   77.6    27   19.6   166     26.4   931.2    0.00     600    74.0
 298   10:00   78.4    26   19.4   169     26.8   931.2    0.00     615    74.0
 298   10:10   79.0    26   19.0   170     28.6   931.2    0.00     627    74.0
 298   10:20   79.2    26   17.0   168     23.2   931.2    0.00     635    74.0
 298   10:30   79.4    25   16.2   143     23.2   931.1    0.00     607    74.1
 298   10:40   79.8    25   17.7   148     25.3   931.0    0.00     636    74.2
 298   10:50   80.5    25   17.8   156     26.6   930.8    0.00     656    74.3
 298   11:00   80.9    25   19.0   156     25.4   930.7    0.00     671    74.4
 298   11:10   81.1    25   20.2   162     27.4   930.6    0.00     669    74.4
 298   11:20   81.0    24   19.9   164     32.4   930.6    0.00     591    74.5
 298   11:30   80.1    25   18.7   169     25.9   930.4    0.00     506    74.6
 298   11:40   81.1    24   19.1   171     26.6   930.3    0.00     684    74.7
 298   11:50   81.2    24   18.4   162     28.6   930.3    0.00     725    74.8
 298   12:00   81.7    23   19.2   179     27.7   930.1    0.00     738    74.9

Return to Amargosa Valley, Nevada graphs page.


Western Regional Climate Center,wrcc@dri.edu